sensor_id;sensor_type;location;lat;lon;timestamp;temperature;humidity
17333;DHT22;8784;50.94667800;7.08448400;2023-09-19T00:00:27;18.70;99.90
17333;DHT22;8784;50.94667800;7.08448400;2023-09-19T00:02:54;18.70;99.90
17333;DHT22;8784;50.94667800;7.08448400;2023-09-19T00:05:24;18.70;99.90
17333;DHT22;8784;50.94667800;7.08448400;2023-09-19T00:07:54;18.70;99.90
17333;DHT22;8784;50.94667800;7.08448400;2023-09-19T00:10:22;18.60;99.90
17333;DHT22;8784;50.94667800;7.08448400;2023-09-19T00:12:50;18.70;99.90
17333;DHT22;8784;50.94667800;7.08448400;2023-09-19T00:15:18;18.70;99.90
17333;DHT22;8784;50.94667800;7.08448400;2023-09-19T00:17:47;18.70;99.90
17333;DHT22;8784;50.94667800;7.08448400;2023-09-19T00:20:14;18.70;99.90
17333;DHT22;8784;50.94667800;7.08448400;2023-09-19T00:22:43;18.60;99.90
17333;DHT22;8784;50.94667800;7.08448400;2023-09-19T00:25:10;18.50;99.90
17333;DHT22;8784;50.94667800;7.08448400;2023-09-19T00:27:38;18.50;99.90
17333;DHT22;8784;50.94667800;7.08448400;2023-09-19T00:30:08;18.50;99.90
17333;DHT22;8784;50.94667800;7.08448400;2023-09-19T00:32:40;18.40;99.90
17333;DHT22;8784;50.94667800;7.08448400;2023-09-19T00:35:08;18.40;99.90
17333;DHT22;8784;50.94667800;7.08448400;2023-09-19T00:37:37;18.40;99.90
17333;DHT22;8784;50.94667800;7.08448400;2023-09-19T00:40:06;18.40;99.90
17333;DHT22;8784;50.94667800;7.08448400;2023-09-19T00:42:36;18.50;99.90
17333;DHT22;8784;50.94667800;7.08448400;2023-09-19T00:45:04;18.50;99.90
17333;DHT22;8784;50.94667800;7.08448400;2023-09-19T00:47:31;18.60;99.90
17333;DHT22;8784;50.94667800;7.08448400;2023-09-19T00:49:59;18.60;99.90
17333;DHT22;8784;50.94667800;7.08448400;2023-09-19T00:52:27;18.60;99.90
17333;DHT22;8784;50.94667800;7.08448400;2023-09-19T00:54:54;18.70;99.90
17333;DHT22;8784;50.94667800;7.08448400;2023-09-19T00:57:22;18.70;99.90
17333;DHT22;8784;50.94667800;7.08448400;2023-09-19T00:59:50;18.70;99.90
17333;DHT22;8784;50.94667800;7.08448400;2023-09-19T01:02:19;18.70;99.90
17333;DHT22;8784;50.94667800;7.08448400;2023-09-19T01:04:47;18.70;99.90
17333;DHT22;8784;50.94667800;7.08448400;2023-09-19T01:07:14;18.70;99.90
17333;DHT22;8784;50.94667800;7.08448400;2023-09-19T01:09:43;18.70;99.90
17333;DHT22;8784;50.94667800;7.08448400;2023-09-19T01:12:11;18.80;99.90
17333;DHT22;8784;50.94667800;7.08448400;2023-09-19T01:14:44;18.90;99.90
17333;DHT22;8784;50.94667800;7.08448400;2023-09-19T01:17:29;18.90;99.90
17333;DHT22;8784;50.94667800;7.08448400;2023-09-19T01:20:21;18.90;99.90
17333;DHT22;8784;50.94667800;7.08448400;2023-09-19T01:23:00;19.00;99.90
17333;DHT22;8784;50.94667800;7.08448400;2023-09-19T01:25:57;19.00;99.90
17333;DHT22;8784;50.94667800;7.08448400;2023-09-19T01:28:32;19.00;99.90
17333;DHT22;8784;50.94667800;7.08448400;2023-09-19T01:31:09;19.00;99.90
17333;DHT22;8784;50.94667800;7.08448400;2023-09-19T01:33:54;19.10;99.90
17333;DHT22;8784;50.94667800;7.08448400;2023-09-19T01:36:28;19.10;99.90
17333;DHT22;8784;50.94667800;7.08448400;2023-09-19T01:38:57;19.20;99.90
17333;DHT22;8784;50.94667800;7.08448400;2023-09-19T01:41:38;19.20;99.90
17333;DHT22;8784;50.94667800;7.08448400;2023-09-19T01:44:09;19.20;99.90
17333;DHT22;8784;50.94667800;7.08448400;2023-09-19T01:46:40;19.10;99.90
17333;DHT22;8784;50.94667800;7.08448400;2023-09-19T01:49:18;19.00;99.90
17333;DHT22;8784;50.94667800;7.08448400;2023-09-19T01:51:56;19.00;99.90
17333;DHT22;8784;50.94667800;7.08448400;2023-09-19T01:54:27;18.90;99.90
17333;DHT22;8784;50.94667800;7.08448400;2023-09-19T01:57:02;18.90;99.90
17333;DHT22;8784;50.94667800;7.08448400;2023-09-19T01:59:36;18.90;99.90
17333;DHT22;8784;50.94667800;7.08448400;2023-09-19T02:02:07;18.80;99.90
17333;DHT22;8784;50.94667800;7.08448400;2023-09-19T02:04:36;18.80;99.90
17333;DHT22;8784;50.94667800;7.08448400;2023-09-19T02:07:03;18.80;99.90
17333;DHT22;8784;50.94667800;7.08448400;2023-09-19T02:09:34;18.80;99.90
17333;DHT22;8784;50.94667800;7.08448400;2023-09-19T02:12:04;18.80;99.90
17333;DHT22;8784;50.94667800;7.08448400;2023-09-19T02:14:31;18.70;99.90
17333;DHT22;8784;50.94667800;7.08448400;2023-09-19T02:17:01;18.60;99.90
17333;DHT22;8784;50.94667800;7.08448400;2023-09-19T02:19:30;18.60;99.90
17333;DHT22;8784;50.94667800;7.08448400;2023-09-19T02:21:59;18.60;99.90
17333;DHT22;8784;50.94667800;7.08448400;2023-09-19T02:24:27;18.60;99.90
17333;DHT22;8784;50.94667800;7.08448400;2023-09-19T02:26:54;18.60;99.90
17333;DHT22;8784;50.94667800;7.08448400;2023-09-19T02:29:21;18.60;99.90
17333;DHT22;8784;50.94667800;7.08448400;2023-09-19T02:31:48;18.60;99.90
17333;DHT22;8784;50.94667800;7.08448400;2023-09-19T02:34:15;18.60;99.90
17333;DHT22;8784;50.94667800;7.08448400;2023-09-19T02:36:44;18.50;99.90
17333;DHT22;8784;50.94667800;7.08448400;2023-09-19T02:39:11;18.50;99.90
17333;DHT22;8784;50.94667800;7.08448400;2023-09-19T02:41:38;18.50;99.90
17333;DHT22;8784;50.94667800;7.08448400;2023-09-19T02:44:07;18.50;99.90
17333;DHT22;8784;50.94667800;7.08448400;2023-09-19T02:46:34;18.50;99.90
17333;DHT22;8784;50.94667800;7.08448400;2023-09-19T02:49:03;18.50;99.90
17333;DHT22;8784;50.94667800;7.08448400;2023-09-19T02:51:30;18.50;99.90
17333;DHT22;8784;50.94667800;7.08448400;2023-09-19T02:53:59;18.40;99.90
17333;DHT22;8784;50.94667800;7.08448400;2023-09-19T02:56:28;18.40;99.90
17333;DHT22;8784;50.94667800;7.08448400;2023-09-19T02:58:56;18.30;99.90
17333;DHT22;8784;50.94667800;7.08448400;2023-09-19T03:01:23;18.30;99.90
17333;DHT22;8784;50.94667800;7.08448400;2023-09-19T03:03:50;18.40;99.90
17333;DHT22;8784;50.94667800;7.08448400;2023-09-19T03:06:17;18.40;99.90
17333;DHT22;8784;50.94667800;7.08448400;2023-09-19T03:08:46;18.30;99.90
17333;DHT22;8784;50.94667800;7.08448400;2023-09-19T03:11:16;18.30;99.90
17333;DHT22;8784;50.94667800;7.08448400;2023-09-19T03:13:50;18.30;99.90
17333;DHT22;8784;50.94667800;7.08448400;2023-09-19T03:16:17;18.30;99.90
17333;DHT22;8784;50.94667800;7.08448400;2023-09-19T03:18:44;18.30;99.90
17333;DHT22;8784;50.94667800;7.08448400;2023-09-19T03:21:13;18.30;99.90
17333;DHT22;8784;50.94667800;7.08448400;2023-09-19T03:23:40;18.30;99.90
17333;DHT22;8784;50.94667800;7.08448400;2023-09-19T03:26:11;18.40;99.90
17333;DHT22;8784;50.94667800;7.08448400;2023-09-19T03:28:41;18.40;99.90
17333;DHT22;8784;50.94667800;7.08448400;2023-09-19T03:31:09;18.30;99.90
17333;DHT22;8784;50.94667800;7.08448400;2023-09-19T03:33:37;18.30;99.90
17333;DHT22;8784;50.94667800;7.08448400;2023-09-19T03:36:04;18.30;99.90
17333;DHT22;8784;50.94667800;7.08448400;2023-09-19T03:38:33;18.30;99.90
17333;DHT22;8784;50.94667800;7.08448400;2023-09-19T03:41:00;18.30;99.90
17333;DHT22;8784;50.94667800;7.08448400;2023-09-19T03:43:27;18.30;99.90
17333;DHT22;8784;50.94667800;7.08448400;2023-09-19T03:45:55;18.20;99.90
17333;DHT22;8784;50.94667800;7.08448400;2023-09-19T03:48:23;18.20;99.90
17333;DHT22;8784;50.94667800;7.08448400;2023-09-19T03:50:51;18.20;99.90
17333;DHT22;8784;50.94667800;7.08448400;2023-09-19T03:53:18;18.10;99.90
17333;DHT22;8784;50.94667800;7.08448400;2023-09-19T03:55:45;18.10;99.90
17333;DHT22;8784;50.94667800;7.08448400;2023-09-19T03:58:12;18.10;99.90
17333;DHT22;8784;50.94667800;7.08448400;2023-09-19T04:00:39;18.10;99.90
17333;DHT22;8784;50.94667800;7.08448400;2023-09-19T04:03:08;18.10;99.90
17333;DHT22;8784;50.94667800;7.08448400;2023-09-19T04:05:36;18.00;99.90
17333;DHT22;8784;50.94667800;7.08448400;2023-09-19T04:08:03;17.90;99.90
17333;DHT22;8784;50.94667800;7.08448400;2023-09-19T04:10:30;17.80;99.90
17333;DHT22;8784;50.94667800;7.08448400;2023-09-19T04:12:57;17.80;99.90
17333;DHT22;8784;50.94667800;7.08448400;2023-09-19T04:15:24;17.60;99.90
17333;DHT22;8784;50.94667800;7.08448400;2023-09-19T04:17:53;17.60;99.90
17333;DHT22;8784;50.94667800;7.08448400;2023-09-19T04:20:21;17.60;99.90
17333;DHT22;8784;50.94667800;7.08448400;2023-09-19T04:22:49;17.60;99.90
17333;DHT22;8784;50.94667800;7.08448400;2023-09-19T04:25:16;17.60;99.90
17333;DHT22;8784;50.94667800;7.08448400;2023-09-19T04:27:44;17.60;99.90
17333;DHT22;8784;50.94667800;7.08448400;2023-09-19T04:30:12;17.60;99.90
17333;DHT22;8784;50.94667800;7.08448400;2023-09-19T04:32:40;17.60;99.90
17333;DHT22;8784;50.94667800;7.08448400;2023-09-19T04:35:08;17.60;99.90
17333;DHT22;8784;50.94667800;7.08448400;2023-09-19T04:37:39;17.60;99.90
17333;DHT22;8784;50.94667800;7.08448400;2023-09-19T04:40:08;17.50;99.90
17333;DHT22;8784;50.94667800;7.08448400;2023-09-19T04:42:39;17.50;99.90
17333;DHT22;8784;50.94667800;7.08448400;2023-09-19T04:45:07;17.50;99.90
17333;DHT22;8784;50.94667800;7.08448400;2023-09-19T04:47:36;17.50;99.90
17333;DHT22;8784;50.94667800;7.08448400;2023-09-19T04:50:08;17.50;99.90
17333;DHT22;8784;50.94667800;7.08448400;2023-09-19T04:52:41;17.50;99.90
17333;DHT22;8784;50.94667800;7.08448400;2023-09-19T04:55:10;17.50;99.90
17333;DHT22;8784;50.94667800;7.08448400;2023-09-19T04:57:39;17.50;99.90
17333;DHT22;8784;50.94667800;7.08448400;2023-09-19T05:00:09;17.60;99.90
17333;DHT22;8784;50.94667800;7.08448400;2023-09-19T05:02:38;17.60;99.90
17333;DHT22;8784;50.94667800;7.08448400;2023-09-19T05:05:07;17.60;99.90
17333;DHT22;8784;50.94667800;7.08448400;2023-09-19T05:07:34;17.60;99.90
17333;DHT22;8784;50.94667800;7.08448400;2023-09-19T05:10:03;17.50;99.90
17333;DHT22;8784;50.94667800;7.08448400;2023-09-19T05:12:33;17.60;99.90
17333;DHT22;8784;50.94667800;7.08448400;2023-09-19T05:15:01;17.50;99.90
17333;DHT22;8784;50.94667800;7.08448400;2023-09-19T05:17:29;17.40;99.90
17333;DHT22;8784;50.94667800;7.08448400;2023-09-19T05:19:56;17.50;99.90
17333;DHT22;8784;50.94667800;7.08448400;2023-09-19T05:22:27;17.50;99.90
17333;DHT22;8784;50.94667800;7.08448400;2023-09-19T05:24:54;17.50;99.90
17333;DHT22;8784;50.94667800;7.08448400;2023-09-19T05:27:22;17.40;99.90
17333;DHT22;8784;50.94667800;7.08448400;2023-09-19T05:29:55;17.50;99.90
17333;DHT22;8784;50.94667800;7.08448400;2023-09-19T05:32:22;17.40;99.90
17333;DHT22;8784;50.94667800;7.08448400;2023-09-19T05:34:49;17.40;99.90
17333;DHT22;8784;50.94667800;7.08448400;2023-09-19T05:37:19;17.40;99.90
17333;DHT22;8784;50.94667800;7.08448400;2023-09-19T05:39:46;17.40;99.90
17333;DHT22;8784;50.94667800;7.08448400;2023-09-19T05:42:15;17.40;99.90
17333;DHT22;8784;50.94667800;7.08448400;2023-09-19T05:44:46;17.40;99.90
17333;DHT22;8784;50.94667800;7.08448400;2023-09-19T05:47:13;17.30;99.90
17333;DHT22;8784;50.94667800;7.08448400;2023-09-19T05:49:40;17.20;99.90
17333;DHT22;8784;50.94667800;7.08448400;2023-09-19T05:52:07;17.20;99.90
17333;DHT22;8784;50.94667800;7.08448400;2023-09-19T05:54:34;17.20;99.90
17333;DHT22;8784;50.94667800;7.08448400;2023-09-19T05:57:01;17.30;99.90
17333;DHT22;8784;50.94667800;7.08448400;2023-09-19T05:59:28;17.30;99.90
17333;DHT22;8784;50.94667800;7.08448400;2023-09-19T06:01:57;17.40;99.90
17333;DHT22;8784;50.94667800;7.08448400;2023-09-19T06:04:25;17.30;99.90
17333;DHT22;8784;50.94667800;7.08448400;2023-09-19T06:06:52;17.40;99.90
17333;DHT22;8784;50.94667800;7.08448400;2023-09-19T06:09:19;17.50;99.90
17333;DHT22;8784;50.94667800;7.08448400;2023-09-19T06:11:46;17.60;99.90
17333;DHT22;8784;50.94667800;7.08448400;2023-09-19T06:14:13;17.50;99.90
17333;DHT22;8784;50.94667800;7.08448400;2023-09-19T06:16:43;17.40;99.90
17333;DHT22;8784;50.94667800;7.08448400;2023-09-19T06:19:12;17.40;99.90
17333;DHT22;8784;50.94667800;7.08448400;2023-09-19T06:21:39;17.40;99.90
17333;DHT22;8784;50.94667800;7.08448400;2023-09-19T06:24:06;17.40;99.90
17333;DHT22;8784;50.94667800;7.08448400;2023-09-19T06:26:33;17.60;99.90
17333;DHT22;8784;50.94667800;7.08448400;2023-09-19T06:29:00;17.60;99.90
17333;DHT22;8784;50.94667800;7.08448400;2023-09-19T06:31:32;17.70;99.90
17333;DHT22;8784;50.94667800;7.08448400;2023-09-19T06:33:59;17.60;99.90
17333;DHT22;8784;50.94667800;7.08448400;2023-09-19T06:36:27;17.80;99.90
17333;DHT22;8784;50.94667800;7.08448400;2023-09-19T06:38:54;17.90;99.90
17333;DHT22;8784;50.94667800;7.08448400;2023-09-19T06:41:21;18.00;99.90
17333;DHT22;8784;50.94667800;7.08448400;2023-09-19T06:43:50;18.00;99.90
17333;DHT22;8784;50.94667800;7.08448400;2023-09-19T06:46:19;18.10;99.90
17333;DHT22;8784;50.94667800;7.08448400;2023-09-19T06:48:46;18.20;99.90
17333;DHT22;8784;50.94667800;7.08448400;2023-09-19T06:51:15;18.20;99.90
17333;DHT22;8784;50.94667800;7.08448400;2023-09-19T06:53:43;18.20;99.90
17333;DHT22;8784;50.94667800;7.08448400;2023-09-19T06:56:10;18.30;99.90
17333;DHT22;8784;50.94667800;7.08448400;2023-09-19T06:58:37;18.50;99.90
17333;DHT22;8784;50.94667800;7.08448400;2023-09-19T07:01:04;18.50;99.90
17333;DHT22;8784;50.94667800;7.08448400;2023-09-19T07:03:31;18.50;99.90
17333;DHT22;8784;50.94667800;7.08448400;2023-09-19T07:05:59;18.70;99.90
17333;DHT22;8784;50.94667800;7.08448400;2023-09-19T07:08:26;18.90;99.90
17333;DHT22;8784;50.94667800;7.08448400;2023-09-19T07:10:56;18.90;99.90
17333;DHT22;8784;50.94667800;7.08448400;2023-09-19T07:13:23;18.80;99.90
17333;DHT22;8784;50.94667800;7.08448400;2023-09-19T07:15:50;18.90;99.90
17333;DHT22;8784;50.94667800;7.08448400;2023-09-19T07:18:17;18.80;99.90
17333;DHT22;8784;50.94667800;7.08448400;2023-09-19T07:20:46;18.90;99.90
17333;DHT22;8784;50.94667800;7.08448400;2023-09-19T07:23:15;19.00;99.90
17333;DHT22;8784;50.94667800;7.08448400;2023-09-19T07:25:43;19.10;99.90
17333;DHT22;8784;50.94667800;7.08448400;2023-09-19T07:28:13;19.00;99.90
17333;DHT22;8784;50.94667800;7.08448400;2023-09-19T07:30:40;19.20;99.90
17333;DHT22;8784;50.94667800;7.08448400;2023-09-19T07:33:08;19.30;99.90
17333;DHT22;8784;50.94667800;7.08448400;2023-09-19T07:35:37;19.40;99.90
17333;DHT22;8784;50.94667800;7.08448400;2023-09-19T07:38:05;19.40;99.90
17333;DHT22;8784;50.94667800;7.08448400;2023-09-19T07:40:33;19.20;99.90
17333;DHT22;8784;50.94667800;7.08448400;2023-09-19T07:43:00;19.10;99.90
17333;DHT22;8784;50.94667800;7.08448400;2023-09-19T07:45:29;19.30;99.90
17333;DHT22;8784;50.94667800;7.08448400;2023-09-19T07:47:57;19.50;99.90
17333;DHT22;8784;50.94667800;7.08448400;2023-09-19T07:50:25;19.60;99.90
17333;DHT22;8784;50.94667800;7.08448400;2023-09-19T07:52:53;19.80;99.90
17333;DHT22;8784;50.94667800;7.08448400;2023-09-19T07:55:20;20.00;99.90
17333;DHT22;8784;50.94667800;7.08448400;2023-09-19T07:57:49;20.10;99.90
17333;DHT22;8784;50.94667800;7.08448400;2023-09-19T08:00:16;20.10;99.90
17333;DHT22;8784;50.94667800;7.08448400;2023-09-19T08:02:44;20.20;99.90
17333;DHT22;8784;50.94667800;7.08448400;2023-09-19T08:05:13;20.40;99.90
17333;DHT22;8784;50.94667800;7.08448400;2023-09-19T08:07:43;20.60;99.90
17333;DHT22;8784;50.94667800;7.08448400;2023-09-19T08:10:11;20.60;99.90
17333;DHT22;8784;50.94667800;7.08448400;2023-09-19T08:12:38;20.60;99.70
17333;DHT22;8784;50.94667800;7.08448400;2023-09-19T08:15:12;20.50;99.60
17333;DHT22;8784;50.94667800;7.08448400;2023-09-19T08:17:38;20.50;99.40
17333;DHT22;8784;50.94667800;7.08448400;2023-09-19T08:20:08;20.50;99.30
17333;DHT22;8784;50.94667800;7.08448400;2023-09-19T08:22:43;20.50;99.20
17333;DHT22;8784;50.94667800;7.08448400;2023-09-19T08:25:12;20.50;99.20
17333;DHT22;8784;50.94667800;7.08448400;2023-09-19T08:27:39;20.50;99.00
17333;DHT22;8784;50.94667800;7.08448400;2023-09-19T08:30:07;20.60;98.90
17333;DHT22;8784;50.94667800;7.08448400;2023-09-19T08:32:34;20.80;99.00
17333;DHT22;8784;50.94667800;7.08448400;2023-09-19T08:35:01;21.00;98.70
17333;DHT22;8784;50.94667800;7.08448400;2023-09-19T08:37:31;21.30;98.70
17333;DHT22;8784;50.94667800;7.08448400;2023-09-19T08:39:58;21.60;97.60
17333;DHT22;8784;50.94667800;7.08448400;2023-09-19T08:42:25;21.70;97.30
17333;DHT22;8784;50.94667800;7.08448400;2023-09-19T08:44:52;21.80;97.10
17333;DHT22;8784;50.94667800;7.08448400;2023-09-19T08:47:29;22.00;96.80
17333;DHT22;8784;50.94667800;7.08448400;2023-09-19T08:50:03;22.00;96.20
17333;DHT22;8784;50.94667800;7.08448400;2023-09-19T08:52:41;22.10;95.80
17333;DHT22;8784;50.94667800;7.08448400;2023-09-19T08:55:12;22.30;95.50
17333;DHT22;8784;50.94667800;7.08448400;2023-09-19T08:57:41;22.50;95.00
17333;DHT22;8784;50.94667800;7.08448400;2023-09-19T09:00:11;22.80;94.60
17333;DHT22;8784;50.94667800;7.08448400;2023-09-19T09:02:40;22.90;94.20
17333;DHT22;8784;50.94667800;7.08448400;2023-09-19T09:05:08;23.00;93.60
17333;DHT22;8784;50.94667800;7.08448400;2023-09-19T09:07:38;23.10;93.40
17333;DHT22;8784;50.94667800;7.08448400;2023-09-19T09:10:06;23.30;92.80
17333;DHT22;8784;50.94667800;7.08448400;2023-09-19T09:12:35;23.80;92.20
17333;DHT22;8784;50.94667800;7.08448400;2023-09-19T09:15:05;24.40;91.30
17333;DHT22;8784;50.94667800;7.08448400;2023-09-19T09:17:34;24.80;91.10
17333;DHT22;8784;50.94667800;7.08448400;2023-09-19T09:20:01;24.80;90.40
17333;DHT22;8784;50.94667800;7.08448400;2023-09-19T09:22:29;25.10;90.40
17333;DHT22;8784;50.94667800;7.08448400;2023-09-19T09:24:58;25.30;89.00
17333;DHT22;8784;50.94667800;7.08448400;2023-09-19T09:27:29;25.40;88.50
17333;DHT22;8784;50.94667800;7.08448400;2023-09-19T09:29:57;26.00;87.70
17333;DHT22;8784;50.94667800;7.08448400;2023-09-19T09:32:25;26.60;85.50
17333;DHT22;8784;50.94667800;7.08448400;2023-09-19T09:34:53;27.30;82.50
17333;DHT22;8784;50.94667800;7.08448400;2023-09-19T09:37:27;27.90;79.60
17333;DHT22;8784;50.94667800;7.08448400;2023-09-19T09:39:57;28.60;77.90
17333;DHT22;8784;50.94667800;7.08448400;2023-09-19T09:42:44;29.60;75.80
17333;DHT22;8784;50.94667800;7.08448400;2023-09-19T09:45:13;30.20;71.80
17333;DHT22;8784;50.94667800;7.08448400;2023-09-19T09:47:44;30.70;70.20
17333;DHT22;8784;50.94667800;7.08448400;2023-09-19T09:50:26;30.90;67.70
17333;DHT22;8784;50.94667800;7.08448400;2023-09-19T09:52:56;31.00;65.30
17333;DHT22;8784;50.94667800;7.08448400;2023-09-19T09:55:58;30.70;65.90
17333;DHT22;8784;50.94667800;7.08448400;2023-09-19T09:58:26;30.30;63.90
17333;DHT22;8784;50.94667800;7.08448400;2023-09-19T10:00:56;30.10;65.10
17333;DHT22;8784;50.94667800;7.08448400;2023-09-19T10:03:31;29.60;65.00
17333;DHT22;8784;50.94667800;7.08448400;2023-09-19T10:06:00;29.00;64.30
17333;DHT22;8784;50.94667800;7.08448400;2023-09-19T10:09:02;28.40;65.00
17333;DHT22;8784;50.94667800;7.08448400;2023-09-19T10:11:40;28.00;65.20
17333;DHT22;8784;50.94667800;7.08448400;2023-09-19T10:14:09;27.40;65.60
17333;DHT22;8784;50.94667800;7.08448400;2023-09-19T10:16:40;26.90;66.10
17333;DHT22;8784;50.94667800;7.08448400;2023-09-19T10:19:10;26.50;66.90
17333;DHT22;8784;50.94667800;7.08448400;2023-09-19T10:21:39;26.30;67.00
17333;DHT22;8784;50.94667800;7.08448400;2023-09-19T10:24:09;26.40;68.30
17333;DHT22;8784;50.94667800;7.08448400;2023-09-19T10:26:38;26.40;67.00
17333;DHT22;8784;50.94667800;7.08448400;2023-09-19T10:29:10;26.20;67.20
17333;DHT22;8784;50.94667800;7.08448400;2023-09-19T10:31:38;26.40;68.40
17333;DHT22;8784;50.94667800;7.08448400;2023-09-19T10:34:08;26.70;67.80
17333;DHT22;8784;50.94667800;7.08448400;2023-09-19T10:36:36;26.70;66.30
17333;DHT22;8784;50.94667800;7.08448400;2023-09-19T10:39:05;26.60;66.80
17333;DHT22;8784;50.94667800;7.08448400;2023-09-19T10:41:35;26.40;67.50
17333;DHT22;8784;50.94667800;7.08448400;2023-09-19T10:44:04;26.20;67.40
17333;DHT22;8784;50.94667800;7.08448400;2023-09-19T10:46:32;25.90;67.90
17333;DHT22;8784;50.94667800;7.08448400;2023-09-19T10:49:00;25.80;67.40
17333;DHT22;8784;50.94667800;7.08448400;2023-09-19T10:51:30;25.70;67.90
17333;DHT22;8784;50.94667800;7.08448400;2023-09-19T10:54:04;25.60;67.80
17333;DHT22;8784;50.94667800;7.08448400;2023-09-19T10:56:34;25.60;68.10
17333;DHT22;8784;50.94667800;7.08448400;2023-09-19T10:59:08;25.30;67.60
17333;DHT22;8784;50.94667800;7.08448400;2023-09-19T11:01:45;25.30;67.80
17333;DHT22;8784;50.94667800;7.08448400;2023-09-19T11:04:24;25.20;68.00
17333;DHT22;8784;50.94667800;7.08448400;2023-09-19T11:07:02;25.10;67.60
17333;DHT22;8784;50.94667800;7.08448400;2023-09-19T11:09:49;24.80;68.20
17333;DHT22;8784;50.94667800;7.08448400;2023-09-19T11:12:49;24.60;67.80
17333;DHT22;8784;50.94667800;7.08448400;2023-09-19T11:18:54;24.30;68.20
17333;DHT22;8784;50.94667800;7.08448400;2023-09-19T11:21:51;24.20;68.90
17333;DHT22;8784;50.94667800;7.08448400;2023-09-19T11:24:33;24.10;69.00
17333;DHT22;8784;50.94667800;7.08448400;2023-09-19T11:27:14;24.20;69.40
17333;DHT22;8784;50.94667800;7.08448400;2023-09-19T11:29:43;24.10;68.40
17333;DHT22;8784;50.94667800;7.08448400;2023-09-19T11:32:11;23.80;69.20
17333;DHT22;8784;50.94667800;7.08448400;2023-09-19T11:34:40;23.70;69.80
17333;DHT22;8784;50.94667800;7.08448400;2023-09-19T11:40:11;23.60;70.00
17333;DHT22;8784;50.94667800;7.08448400;2023-09-19T11:42:42;23.60;70.20
17333;DHT22;8784;50.94667800;7.08448400;2023-09-19T11:48:12;23.40;70.20
17333;DHT22;8784;50.94667800;7.08448400;2023-09-19T11:50:43;23.30;70.00
17333;DHT22;8784;50.94667800;7.08448400;2023-09-19T11:53:11;23.20;69.80
17333;DHT22;8784;50.94667800;7.08448400;2023-09-19T11:55:39;23.20;71.00
17333;DHT22;8784;50.94667800;7.08448400;2023-09-19T11:58:07;23.20;70.60
17333;DHT22;8784;50.94667800;7.08448400;2023-09-19T12:00:35;23.30;70.20
17333;DHT22;8784;50.94667800;7.08448400;2023-09-19T12:03:09;23.20;70.10
17333;DHT22;8784;50.94667800;7.08448400;2023-09-19T12:05:37;23.20;69.70
17333;DHT22;8784;50.94667800;7.08448400;2023-09-19T12:08:07;23.20;70.00
17333;DHT22;8784;50.94667800;7.08448400;2023-09-19T12:10:45;23.20;69.40
17333;DHT22;8784;50.94667800;7.08448400;2023-09-19T12:13:16;23.10;69.50
17333;DHT22;8784;50.94667800;7.08448400;2023-09-19T12:15:43;23.10;69.80
17333;DHT22;8784;50.94667800;7.08448400;2023-09-19T12:18:26;23.20;69.20
17333;DHT22;8784;50.94667800;7.08448400;2023-09-19T12:20:55;23.20;69.10
17333;DHT22;8784;50.94667800;7.08448400;2023-09-19T12:23:24;23.10;68.30
17333;DHT22;8784;50.94667800;7.08448400;2023-09-19T12:25:52;23.20;68.80
17333;DHT22;8784;50.94667800;7.08448400;2023-09-19T12:28:22;23.30;69.20
17333;DHT22;8784;50.94667800;7.08448400;2023-09-19T12:30:51;23.40;68.60
17333;DHT22;8784;50.94667800;7.08448400;2023-09-19T12:33:21;23.50;68.10
17333;DHT22;8784;50.94667800;7.08448400;2023-09-19T12:35:51;23.60;67.50
17333;DHT22;8784;50.94667800;7.08448400;2023-09-19T12:38:25;23.70;66.30
17333;DHT22;8784;50.94667800;7.08448400;2023-09-19T12:40:55;23.60;66.90
17333;DHT22;8784;50.94667800;7.08448400;2023-09-19T12:43:23;23.70;66.80
17333;DHT22;8784;50.94667800;7.08448400;2023-09-19T12:45:50;23.70;66.40
17333;DHT22;8784;50.94667800;7.08448400;2023-09-19T12:48:23;23.70;65.90
17333;DHT22;8784;50.94667800;7.08448400;2023-09-19T12:51:05;23.50;66.50
17333;DHT22;8784;50.94667800;7.08448400;2023-09-19T12:53:35;23.50;66.70
17333;DHT22;8784;50.94667800;7.08448400;2023-09-19T12:56:06;23.40;66.90
17333;DHT22;8784;50.94667800;7.08448400;2023-09-19T12:58:34;23.40;66.80
17333;DHT22;8784;50.94667800;7.08448400;2023-09-19T13:01:14;23.50;67.50
17333;DHT22;8784;50.94667800;7.08448400;2023-09-19T13:03:41;23.60;67.30
17333;DHT22;8784;50.94667800;7.08448400;2023-09-19T13:06:08;23.60;67.70
17333;DHT22;8784;50.94667800;7.08448400;2023-09-19T13:08:37;23.70;67.00
17333;DHT22;8784;50.94667800;7.08448400;2023-09-19T13:11:09;23.70;67.10
17333;DHT22;8784;50.94667800;7.08448400;2023-09-19T13:13:39;23.60;66.60
17333;DHT22;8784;50.94667800;7.08448400;2023-09-19T13:16:07;23.50;66.60
17333;DHT22;8784;50.94667800;7.08448400;2023-09-19T13:18:44;23.40;66.50
17333;DHT22;8784;50.94667800;7.08448400;2023-09-19T13:21:13;23.30;66.90
17333;DHT22;8784;50.94667800;7.08448400;2023-09-19T13:23:50;23.20;67.60
17333;DHT22;8784;50.94667800;7.08448400;2023-09-19T13:26:17;23.30;67.10
17333;DHT22;8784;50.94667800;7.08448400;2023-09-19T13:28:44;23.30;67.30
17333;DHT22;8784;50.94667800;7.08448400;2023-09-19T13:31:10;23.30;67.00
17333;DHT22;8784;50.94667800;7.08448400;2023-09-19T13:33:43;23.20;67.50
17333;DHT22;8784;50.94667800;7.08448400;2023-09-19T13:36:11;23.30;67.90
17333;DHT22;8784;50.94667800;7.08448400;2023-09-19T13:38:38;23.40;67.80
17333;DHT22;8784;50.94667800;7.08448400;2023-09-19T13:41:07;23.30;67.40
17333;DHT22;8784;50.94667800;7.08448400;2023-09-19T13:43:35;23.30;67.50
17333;DHT22;8784;50.94667800;7.08448400;2023-09-19T13:46:02;23.40;67.20
17333;DHT22;8784;50.94667800;7.08448400;2023-09-19T13:48:29;23.60;67.90
17333;DHT22;8784;50.94667800;7.08448400;2023-09-19T13:50:56;23.60;67.60
17333;DHT22;8784;50.94667800;7.08448400;2023-09-19T13:53:23;23.60;67.50
17333;DHT22;8784;50.94667800;7.08448400;2023-09-19T13:55:51;23.60;67.40
17333;DHT22;8784;50.94667800;7.08448400;2023-09-19T13:58:19;23.60;67.20